createdAt,value
2022-08-23T00:01:44.997Z,99.90
2022-08-23T00:04:21.392Z,99.90
2022-08-23T00:06:52.566Z,99.90
2022-08-23T00:09:22.885Z,99.90
2022-08-23T00:12:08.672Z,99.90
2022-08-23T00:14:39.253Z,99.90
2022-08-23T00:17:10.206Z,99.90
2022-08-23T00:19:38.518Z,99.90
2022-08-23T00:22:08.068Z,99.90
2022-08-23T00:24:40.956Z,99.90
2022-08-23T00:27:16.709Z,99.90
2022-08-23T00:29:50.514Z,99.90
2022-08-23T00:32:22.202Z,99.90
2022-08-23T00:34:50.827Z,99.90
2022-08-23T00:37:19.836Z,99.90
2022-08-23T00:39:51.873Z,99.90
2022-08-23T00:42:57.905Z,99.90
2022-08-23T00:45:50.571Z,99.90
2022-08-23T00:48:18.848Z,99.90
2022-08-23T00:51:06.648Z,99.90
2022-08-23T00:53:39.988Z,99.90
2022-08-23T00:56:10.515Z,99.90
2022-08-23T00:58:38.645Z,99.90
2022-08-23T01:01:08.382Z,99.90
2022-08-23T01:03:40.672Z,99.90
2022-08-23T01:06:25.516Z,99.90
2022-08-23T01:08:58.604Z,99.90
2022-08-23T01:11:42.436Z,99.90
2022-08-23T01:14:19.719Z,99.90
2022-08-23T01:16:53.739Z,99.90
2022-08-23T01:19:36.735Z,99.90
2022-08-23T01:22:14.164Z,99.90
2022-08-23T01:25:06.264Z,99.90
2022-08-23T01:27:37.046Z,99.90
2022-08-23T01:30:11.508Z,99.90
2022-08-23T01:32:46.708Z,99.90
2022-08-23T01:35:15.289Z,99.90
2022-08-23T01:37:44.088Z,99.90
2022-08-23T01:40:13.278Z,99.90
2022-08-23T01:42:42.778Z,99.90
2022-08-23T01:45:14.757Z,99.90
2022-08-23T01:47:43.341Z,99.90
2022-08-23T01:50:13.288Z,99.90
2022-08-23T01:52:46.648Z,99.90
2022-08-23T01:55:18.436Z,99.90
2022-08-23T01:57:49.889Z,99.90
2022-08-23T02:00:21.943Z,99.90
2022-08-23T02:02:49.972Z,99.90
2022-08-23T02:05:18.996Z,99.90
2022-08-23T02:07:48.900Z,99.90
2022-08-23T02:10:19.339Z,99.90
2022-08-23T02:12:48.516Z,99.90
2022-08-23T02:15:21.295Z,99.90
2022-08-23T02:17:56.896Z,99.90
2022-08-23T02:20:24.973Z,99.90
2022-08-23T02:22:52.959Z,99.90
2022-08-23T02:25:21.182Z,99.90
2022-08-23T02:27:49.070Z,99.90
2022-08-23T02:30:17.752Z,99.90
2022-08-23T02:32:45.918Z,99.90
2022-08-23T02:35:16.159Z,99.90
2022-08-23T02:37:44.074Z,99.90
2022-08-23T02:40:12.579Z,99.90
2022-08-23T02:42:40.704Z,99.90
2022-08-23T02:45:10.958Z,99.90
2022-08-23T02:47:46.496Z,99.90
2022-08-23T02:50:20.102Z,99.90
2022-08-23T02:52:48.538Z,99.90
2022-08-23T02:55:17.409Z,99.90
2022-08-23T02:57:45.467Z,99.90
2022-08-23T03:00:16.222Z,99.90
2022-08-23T03:02:44.725Z,99.90
2022-08-23T03:05:13.475Z,99.90
2022-08-23T03:07:42.463Z,99.90
2022-08-23T03:10:12.312Z,99.90
2022-08-23T03:12:46.272Z,99.90
2022-08-23T03:15:14.394Z,99.90
2022-08-23T03:17:43.167Z,99.90
2022-08-23T03:20:11.878Z,99.90
2022-08-23T03:22:39.894Z,99.90
2022-08-23T03:25:20.697Z,99.90
2022-08-23T03:28:05.803Z,99.90
2022-08-23T03:30:36.102Z,99.90
2022-08-23T03:33:05.651Z,99.90
2022-08-23T03:35:33.673Z,99.90
2022-08-23T03:38:02.793Z,99.90
2022-08-23T03:40:31.142Z,99.90
2022-08-23T03:42:59.149Z,99.90
2022-08-23T03:45:29.508Z,99.90
2022-08-23T03:47:57.605Z,99.90
2022-08-23T03:50:27.329Z,99.90
2022-08-23T03:52:55.940Z,99.90
2022-08-23T03:55:23.850Z,99.90
2022-08-23T03:57:52.727Z,99.90
2022-08-23T04:00:22.003Z,99.90
2022-08-23T04:02:52.785Z,99.90
2022-08-23T04:05:22.736Z,99.90
2022-08-23T04:07:59.554Z,99.90
2022-08-23T04:10:30.639Z,99.90
2022-08-23T04:12:59.010Z,99.90
2022-08-23T04:15:32.175Z,99.90
2022-08-23T04:18:01.222Z,99.90
2022-08-23T04:20:30.054Z,99.90
2022-08-23T04:23:02.002Z,99.90
2022-08-23T04:25:35.820Z,99.90
2022-08-23T04:28:06.283Z,99.90
2022-08-23T04:30:35.238Z,99.90
2022-08-23T04:33:10.592Z,99.90
2022-08-23T04:35:40.131Z,99.90
2022-08-23T04:38:24.029Z,99.90
2022-08-23T04:41:13.400Z,99.90
2022-08-23T04:43:42.377Z,99.90
2022-08-23T04:46:16.451Z,99.90
2022-08-23T04:48:47.753Z,99.90
2022-08-23T04:51:17.873Z,99.90
2022-08-23T04:53:45.810Z,99.90
2022-08-23T04:56:33.141Z,99.90
2022-08-23T04:59:01.213Z,99.90
2022-08-23T05:01:30.122Z,99.90
2022-08-23T05:03:58.219Z,99.90
2022-08-23T05:06:28.866Z,99.90
2022-08-23T05:08:57.019Z,99.90
2022-08-23T05:11:25.494Z,99.90
2022-08-23T05:13:54.202Z,99.90
2022-08-23T05:16:23.519Z,99.90
2022-08-23T05:19:11.030Z,99.90
2022-08-23T05:21:44.700Z,99.90
2022-08-23T05:24:13.811Z,99.90
2022-08-23T05:26:43.586Z,99.90
2022-08-23T05:29:12.266Z,99.90
2022-08-23T05:31:46.284Z,99.90
2022-08-23T05:34:18.094Z,99.90
2022-08-23T05:36:55.748Z,99.90
2022-08-23T05:39:36.519Z,99.90
2022-08-23T05:42:13.823Z,99.90
2022-08-23T05:44:42.466Z,99.90
2022-08-23T05:47:15.114Z,99.90
2022-08-23T05:50:08.607Z,99.90
2022-08-23T05:52:38.266Z,99.90
2022-08-23T05:55:07.622Z,99.90
2022-08-23T05:57:41.895Z,99.90
2022-08-23T06:00:15.377Z,99.90
2022-08-23T06:02:54.451Z,99.90
2022-08-23T06:05:23.061Z,99.90
2022-08-23T06:07:52.020Z,99.90
2022-08-23T06:10:22.924Z,99.90
2022-08-23T06:13:13.838Z,99.90
2022-08-23T06:15:47.476Z,99.90
2022-08-23T06:18:15.747Z,99.90
2022-08-23T06:20:44.525Z,99.90
2022-08-23T06:23:19.011Z,99.90
2022-08-23T06:25:47.288Z,99.90
2022-08-23T06:28:17.039Z,99.90
2022-08-23T06:30:45.518Z,99.90
2022-08-23T06:33:33.498Z,99.90
2022-08-23T06:36:21.707Z,99.90
2022-08-23T06:39:14.447Z,99.90
2022-08-23T06:42:22.207Z,99.90
2022-08-23T06:45:01.848Z,99.90
2022-08-23T06:47:41.334Z,99.90
2022-08-23T06:50:10.473Z,99.90
2022-08-23T06:52:57.324Z,99.90
2022-08-23T06:55:38.171Z,99.90
2022-08-23T06:58:24.533Z,99.90
2022-08-23T07:01:46.522Z,99.90
2022-08-23T07:04:38.638Z,99.90
2022-08-23T07:07:11.363Z,99.90
2022-08-23T07:09:40.693Z,99.90
2022-08-23T07:12:09.178Z,99.90
2022-08-23T07:14:40.023Z,99.90
2022-08-23T07:17:10.689Z,99.90
2022-08-23T07:19:38.672Z,99.90
2022-08-23T07:22:07.396Z,99.90
2022-08-23T07:24:35.728Z,99.90
2022-08-23T07:27:08.283Z,99.90
2022-08-23T07:29:41.601Z,99.90
2022-08-23T07:32:10.954Z,99.90
2022-08-23T07:34:39.324Z,99.90
2022-08-23T07:37:15.460Z,99.90
2022-08-23T07:39:45.012Z,99.90
2022-08-23T07:42:22.643Z,99.90
2022-08-23T07:44:57.600Z,99.90
2022-08-23T07:47:29.649Z,99.90
2022-08-23T07:49:59.948Z,99.90
2022-08-23T07:52:28.914Z,99.90
2022-08-23T07:54:56.938Z,99.90
2022-08-23T07:57:36.964Z,99.90
2022-08-23T08:00:23.739Z,99.90
2022-08-23T08:03:02.090Z,99.90
2022-08-23T08:05:44.287Z,99.90
2022-08-23T08:08:12.593Z,99.90
2022-08-23T08:10:45.035Z,99.90
2022-08-23T08:13:13.528Z,99.90
2022-08-23T08:15:43.398Z,99.90
2022-08-23T08:18:14.895Z,99.90
2022-08-23T08:21:02.295Z,99.90
2022-08-23T08:24:04.848Z,99.90
2022-08-23T08:26:47.239Z,99.90
2022-08-23T08:29:16.090Z,99.90
2022-08-23T08:31:49.518Z,99.90
2022-08-23T08:34:20.685Z,99.90
2022-08-23T08:36:58.473Z,99.90
2022-08-23T08:39:30.241Z,99.90
2022-08-23T08:42:04.692Z,99.90
2022-08-23T08:44:43.543Z,99.90
2022-08-23T08:47:34.527Z,99.90
2022-08-23T08:50:34.149Z,99.90
2022-08-23T08:53:10.874Z,99.90
2022-08-23T08:56:24.575Z,99.90
2022-08-23T08:59:52.422Z,99.90
2022-08-23T09:02:32.492Z,99.90
2022-08-23T09:05:10.870Z,99.90
2022-08-23T09:07:39.077Z,99.90
2022-08-23T09:10:27.181Z,99.90
2022-08-23T09:13:23.832Z,99.90
2022-08-23T09:16:09.935Z,99.90
2022-08-23T09:18:38.350Z,99.90
2022-08-23T09:21:10.701Z,99.90
2022-08-23T09:23:45.509Z,99.70
2022-08-23T09:26:27.866Z,98.80
2022-08-23T09:29:06.664Z,98.60
2022-08-23T09:31:46.644Z,99.90
2022-08-23T09:34:20.419Z,98.50
2022-08-23T09:37:21.790Z,98.10
2022-08-23T09:39:53.883Z,98.70
2022-08-23T09:42:36.940Z,96.60
2022-08-23T09:45:28.192Z,97.50
2022-08-23T09:47:59.485Z,96.20
2022-08-23T09:50:46.583Z,96.20
2022-08-23T09:53:16.758Z,96.90
2022-08-23T09:55:51.037Z,96.10
2022-08-23T09:58:41.824Z,95.80
2022-08-23T10:01:17.588Z,95.50
2022-08-23T10:04:09.679Z,95.70
2022-08-23T10:06:38.811Z,94.20
2022-08-23T10:09:10.027Z,94.20
2022-08-23T10:11:47.047Z,95.00
2022-08-23T10:14:20.609Z,93.50
2022-08-23T10:17:27.743Z,92.60
2022-08-23T10:20:11.962Z,92.90
2022-08-23T10:23:17.850Z,93.20
2022-08-23T10:26:01.206Z,92.50
2022-08-23T10:29:16.318Z,92.20
2022-08-23T10:31:58.952Z,92.00
2022-08-23T10:35:02.201Z,87.30
2022-08-23T10:37:54.397Z,90.00
2022-08-23T10:40:55.892Z,85.90
2022-08-23T10:43:47.023Z,87.20
2022-08-23T10:46:17.297Z,85.70
2022-08-23T10:49:02.726Z,85.20
2022-08-23T10:51:37.383Z,87.30
2022-08-23T10:54:13.681Z,82.30
2022-08-23T10:56:48.889Z,84.10
2022-08-23T10:59:24.987Z,87.40
2022-08-23T11:02:12.236Z,86.90
2022-08-23T11:05:06.419Z,83.40
2022-08-23T11:07:44.193Z,86.00
2022-08-23T11:10:56.029Z,85.50
2022-08-23T11:13:31.442Z,84.10
2022-08-23T11:16:02.125Z,84.70
2022-08-23T11:18:50.133Z,86.20
2022-08-23T11:21:49.394Z,85.20
2022-08-23T11:24:50.926Z,86.20
2022-08-23T11:27:35.976Z,84.60
2022-08-23T11:30:33.011Z,87.10
2022-08-23T11:33:37.931Z,86.10
2022-08-23T11:36:25.150Z,85.60
2022-08-23T11:39:00.858Z,84.30
2022-08-23T11:41:58.002Z,85.10
2022-08-23T11:44:33.822Z,86.90
2022-08-23T11:47:05.028Z,85.70
2022-08-23T11:50:01.565Z,85.30
2022-08-23T11:52:58.472Z,84.30
2022-08-23T11:55:26.335Z,84.30
2022-08-23T11:58:22.532Z,85.90
2022-08-23T12:01:07.879Z,84.10
2022-08-23T12:04:00.938Z,84.60
2022-08-23T12:06:51.504Z,84.40
2022-08-23T12:09:23.749Z,82.70
2022-08-23T12:12:00.295Z,83.00
2022-08-23T12:14:50.773Z,82.20
2022-08-23T12:17:29.709Z,84.10
2022-08-23T12:20:16.398Z,82.10
2022-08-23T12:23:12.195Z,83.70
2022-08-23T12:25:41.035Z,82.60
2022-08-23T12:28:35.626Z,84.20
2022-08-23T12:31:23.918Z,81.50
2022-08-23T12:34:17.883Z,80.10
2022-08-23T12:37:13.706Z,80.50
2022-08-23T12:39:53.701Z,81.00
2022-08-23T12:42:29.462Z,81.10
2022-08-23T12:45:16.223Z,80.70
2022-08-23T12:47:47.867Z,80.90
2022-08-23T12:50:36.815Z,80.70
2022-08-23T12:53:12.592Z,79.60
2022-08-23T12:55:47.190Z,79.80
2022-08-23T12:58:18.112Z,78.70
2022-08-23T13:00:57.821Z,79.80
2022-08-23T13:03:39.289Z,79.50
2022-08-23T13:06:13.120Z,78.80
2022-08-23T13:09:08.699Z,79.10
2022-08-23T13:11:37.874Z,78.60
2022-08-23T13:14:31.277Z,77.30
2022-08-23T13:17:20.355Z,78.60
2022-08-23T13:19:52.043Z,78.40
2022-08-23T13:22:23.367Z,75.90
2022-08-23T13:25:28.574Z,76.70
2022-08-23T13:28:07.751Z,78.70
2022-08-23T13:30:38.621Z,76.20
2022-08-23T13:33:09.634Z,76.80
2022-08-23T13:35:38.810Z,75.70
2022-08-23T13:38:09.388Z,74.10
2022-08-23T13:41:09.925Z,74.20
2022-08-23T13:43:52.444Z,75.20
2022-08-23T13:46:24.579Z,75.00
2022-08-23T13:49:03.482Z,74.30
2022-08-23T13:51:43.604Z,74.30
2022-08-23T13:54:14.864Z,71.80
2022-08-23T13:56:53.385Z,73.40
2022-08-23T13:59:31.326Z,72.30
2022-08-23T14:02:09.232Z,73.80
2022-08-23T14:04:40.098Z,73.20
2022-08-23T14:07:12.657Z,70.10
2022-08-23T14:09:41.135Z,69.80
2022-08-23T14:12:36.521Z,72.90
2022-08-23T14:15:06.819Z,70.80
2022-08-23T14:17:43.126Z,70.10
2022-08-23T14:23:11.875Z,70.50
2022-08-23T14:25:40.971Z,70.80
2022-08-23T14:28:08.874Z,70.70
2022-08-23T14:30:38.117Z,71.70
2022-08-23T14:33:06.602Z,71.40
2022-08-23T14:35:34.495Z,69.20
2022-08-23T14:38:03.994Z,68.60
2022-08-23T14:40:32.395Z,69.40
2022-08-23T14:43:00.417Z,68.10
2022-08-23T14:45:28.498Z,69.50
2022-08-23T14:47:56.426Z,69.80
2022-08-23T14:50:24.389Z,69.10
2022-08-23T14:52:55.861Z,70.10
2022-08-23T14:55:25.087Z,68.70
2022-08-23T14:57:53.722Z,69.80
2022-08-23T15:00:22.191Z,69.80
2022-08-23T15:02:51.296Z,68.70
2022-08-23T15:05:19.823Z,68.40
2022-08-23T15:07:47.783Z,70.70
2022-08-23T15:13:27.405Z,69.50
2022-08-23T15:15:54.485Z,70.80
2022-08-23T15:18:22.933Z,69.70
2022-08-23T15:20:51.317Z,69.00
2022-08-23T15:23:21.946Z,69.70
2022-08-23T15:25:50.213Z,69.50
2022-08-23T15:28:19.862Z,70.00
2022-08-23T15:30:49.316Z,70.10
2022-08-23T15:33:17.562Z,69.70
2022-08-23T15:35:56.487Z,69.60
2022-08-23T15:38:26.681Z,70.30
2022-08-23T15:40:55.815Z,71.00
2022-08-23T15:43:34.175Z,71.00
2022-08-23T15:46:11.808Z,71.10
2022-08-23T15:48:53.594Z,74.10
2022-08-23T15:51:21.897Z,73.20
2022-08-23T15:53:49.902Z,74.30
2022-08-23T15:56:22.612Z,72.10
2022-08-23T15:58:50.619Z,72.60
2022-08-23T16:01:22.773Z,73.40
2022-08-23T16:03:52.667Z,72.20
2022-08-23T16:06:21.117Z,73.70
2022-08-23T16:08:53.395Z,75.70
2022-08-23T16:11:22.391Z,75.60
2022-08-23T16:13:55.105Z,76.20
2022-08-23T16:16:32.010Z,75.90
2022-08-23T16:19:01.338Z,76.00
2022-08-23T16:21:31.505Z,75.80
2022-08-23T16:24:00.146Z,75.40
2022-08-23T16:26:34.758Z,75.40
2022-08-23T16:29:08.350Z,76.10
2022-08-23T16:31:40.884Z,76.70
2022-08-23T16:34:15.530Z,77.70
2022-08-23T16:36:46.726Z,77.00
2022-08-23T16:39:16.987Z,77.10
2022-08-23T16:41:44.955Z,78.60
2022-08-23T16:44:13.165Z,77.90
2022-08-23T16:46:44.028Z,78.30
2022-08-23T16:49:12.733Z,78.50
2022-08-23T16:51:40.994Z,78.50
2022-08-23T16:54:09.559Z,78.30
2022-08-23T16:56:38.493Z,79.10
2022-08-23T16:59:09.492Z,79.90
2022-08-23T17:02:11.196Z,79.30
2022-08-23T17:04:39.720Z,78.90
2022-08-23T17:07:10.844Z,79.00
2022-08-23T17:09:38.921Z,80.00
2022-08-23T17:12:10.152Z,81.40
2022-08-23T17:14:38.216Z,82.80
2022-08-23T17:17:06.122Z,82.00
2022-08-23T17:19:34.210Z,82.10
2022-08-23T17:22:02.384Z,82.50
2022-08-23T17:24:30.399Z,82.60
2022-08-23T17:26:58.776Z,83.30
2022-08-23T17:29:27.045Z,84.20
2022-08-23T17:31:54.997Z,84.50
2022-08-23T17:34:22.956Z,85.50
2022-08-23T17:36:55.282Z,85.90
2022-08-23T17:39:30.002Z,86.10
2022-08-23T17:41:59.393Z,86.10
2022-08-23T17:44:27.280Z,86.80
2022-08-23T17:46:55.264Z,86.90
2022-08-23T17:49:23.243Z,87.20
2022-08-23T17:51:51.169Z,87.50
2022-08-23T17:54:19.540Z,87.30
2022-08-23T17:56:50.487Z,88.00
2022-08-23T17:59:22.386Z,88.40
2022-08-23T18:01:50.430Z,88.80
2022-08-23T18:04:30.711Z,89.20
2022-08-23T18:07:00.675Z,89.70
2022-08-23T18:09:28.742Z,90.00
2022-08-23T18:11:56.704Z,90.20
2022-08-23T18:14:24.890Z,90.20
2022-08-23T18:16:53.382Z,90.20
2022-08-23T18:19:22.220Z,90.50
2022-08-23T18:21:53.254Z,90.70
2022-08-23T18:24:24.513Z,90.90
2022-08-23T18:27:11.027Z,90.80
2022-08-23T18:29:39.694Z,91.10
2022-08-23T18:32:10.611Z,91.20
2022-08-23T18:34:39.002Z,91.50
2022-08-23T18:37:08.540Z,91.60
2022-08-23T18:39:36.582Z,91.60
2022-08-23T18:42:06.434Z,91.70
2022-08-23T18:44:37.430Z,91.80
2022-08-23T18:47:05.668Z,92.00
2022-08-23T18:49:34.902Z,91.90
2022-08-23T18:52:03.768Z,92.70
2022-08-23T18:54:34.077Z,92.90
2022-08-23T18:57:02.612Z,93.10
2022-08-23T18:59:31.495Z,93.50
2022-08-23T19:01:59.925Z,93.70
2022-08-23T19:04:28.256Z,94.30
2022-08-23T19:06:56.309Z,95.10
2022-08-23T19:09:24.266Z,95.10
2022-08-23T19:11:52.593Z,96.00
2022-08-23T19:14:20.631Z,96.20
2022-08-23T19:16:48.975Z,97.00
2022-08-23T19:19:17.899Z,97.50
2022-08-23T19:21:46.388Z,97.30
2022-08-23T19:24:14.653Z,98.30
2022-08-23T19:26:45.725Z,99.10
2022-08-23T19:29:16.708Z,99.70
2022-08-23T19:31:51.800Z,99.90
2022-08-23T19:34:23.292Z,99.90
2022-08-23T19:37:00.255Z,99.90
2022-08-23T19:39:30.431Z,99.90
2022-08-23T19:41:59.178Z,99.90
2022-08-23T19:44:27.700Z,99.90
2022-08-23T19:46:58.869Z,99.90
2022-08-23T19:49:26.904Z,99.90
2022-08-23T19:51:54.875Z,99.90
2022-08-23T19:54:22.981Z,99.90
2022-08-23T19:56:59.738Z,99.90
2022-08-23T19:59:37.320Z,99.90
2022-08-23T20:02:05.906Z,99.90
2022-08-23T20:04:34.605Z,99.90
2022-08-23T20:07:03.723Z,99.90
2022-08-23T20:09:33.271Z,99.90
2022-08-23T20:12:02.173Z,99.90
2022-08-23T20:14:32.127Z,99.90
2022-08-23T20:17:08.348Z,99.90
2022-08-23T20:19:37.054Z,99.90
2022-08-23T20:22:24.387Z,99.90
2022-08-23T20:24:53.053Z,99.90
2022-08-23T20:27:30.194Z,99.90
2022-08-23T20:30:01.432Z,99.90
2022-08-23T20:32:30.835Z,99.90
2022-08-23T20:34:59.591Z,99.90
2022-08-23T20:37:28.236Z,99.90
2022-08-23T20:39:56.280Z,99.90
2022-08-23T20:42:24.654Z,99.90
2022-08-23T20:44:52.738Z,99.90
2022-08-23T20:47:20.958Z,99.90
2022-08-23T20:49:49.115Z,99.90
2022-08-23T20:52:19.313Z,99.90
2022-08-23T20:54:47.648Z,99.90
2022-08-23T20:57:15.604Z,99.90
2022-08-23T20:59:44.968Z,99.90
2022-08-23T21:02:13.714Z,99.90
2022-08-23T21:04:41.880Z,99.90
2022-08-23T21:07:10.121Z,99.90
2022-08-23T21:09:38.159Z,99.90
2022-08-23T21:12:07.155Z,99.90
2022-08-23T21:14:39.102Z,99.90
2022-08-23T21:17:11.230Z,99.90
2022-08-23T21:19:39.982Z,99.90
2022-08-23T21:22:08.359Z,99.90
2022-08-23T21:24:36.462Z,99.90
2022-08-23T21:27:08.848Z,99.90
2022-08-23T21:29:39.035Z,99.90
2022-08-23T21:32:08.025Z,99.90
2022-08-23T21:34:36.194Z,99.90
2022-08-23T21:37:04.514Z,99.90
2022-08-23T21:39:33.122Z,99.90
2022-08-23T21:42:01.680Z,99.90
2022-08-23T21:44:29.759Z,99.90
2022-08-23T21:46:57.800Z,99.90
2022-08-23T21:49:25.818Z,99.90
2022-08-23T21:51:56.558Z,99.90
2022-08-23T21:54:25.627Z,99.90
2022-08-23T21:56:59.391Z,99.90
2022-08-23T21:59:27.961Z,99.90
2022-08-23T22:01:56.078Z,99.90
2022-08-23T22:04:24.151Z,99.90
2022-08-23T22:06:52.169Z,99.90
2022-08-23T22:09:31.201Z,99.90
2022-08-23T22:12:01.269Z,99.90
2022-08-23T22:14:31.499Z,99.90
2022-08-23T22:17:00.847Z,99.90
2022-08-23T22:19:29.440Z,99.90
2022-08-23T22:21:57.761Z,99.90
2022-08-23T22:24:28.527Z,99.90
2022-08-23T22:26:58.934Z,99.90
2022-08-23T22:29:27.085Z,99.90
2022-08-23T22:31:55.056Z,99.90
2022-08-23T22:34:23.280Z,99.90
2022-08-23T22:36:52.519Z,99.90
2022-08-23T22:39:21.293Z,99.90
2022-08-23T22:41:49.955Z,99.90
2022-08-23T22:44:18.914Z,99.90
2022-08-23T22:46:47.345Z,99.90
2022-08-23T22:49:15.873Z,99.90
2022-08-23T22:51:43.984Z,99.90
2022-08-23T22:54:13.512Z,99.90
2022-08-23T22:56:48.589Z,99.90
2022-08-23T22:59:18.648Z,99.90
2022-08-23T23:01:51.193Z,99.90
2022-08-23T23:04:22.703Z,99.90
2022-08-23T23:06:51.752Z,99.90
2022-08-23T23:09:20.379Z,99.90
2022-08-23T23:11:49.448Z,99.90
2022-08-23T23:14:19.399Z,99.90
2022-08-23T23:16:50.397Z,99.90
2022-08-23T23:19:37.897Z,99.90
2022-08-23T23:22:08.228Z,99.90
2022-08-23T23:24:39.012Z,99.90
2022-08-23T23:27:07.468Z,99.90
2022-08-23T23:29:36.492Z,99.90
2022-08-23T23:32:05.000Z,99.90
2022-08-23T23:34:33.018Z,99.90
2022-08-23T23:37:01.093Z,99.90
2022-08-23T23:39:29.545Z,99.90
2022-08-23T23:41:57.770Z,99.90
2022-08-23T23:44:31.746Z,99.90
2022-08-23T23:47:01.925Z,99.90
2022-08-23T23:49:33.126Z,99.90
2022-08-23T23:52:03.675Z,99.90
2022-08-23T23:54:32.735Z,99.90
2022-08-23T23:57:01.258Z,99.90
2022-08-23T23:59:32.589Z,99.90
